Terminal Aerodrome Forecast
Issued by NWS Central Illinois

Home | Current Version | Previous Version | Text Only | Print | Product List | Glossary On
Versions: 1 2 3 4 5 6 7 8 9 10 11 12 13 14 15 16 17 18
823
FTUS43 KILX 191734
TAFPIA
TAF
KPIA 191734Z 1918/2018 VRB03KT P6SM SCT200
     FM200900 10004KT 4SM BR SKC
     FM201400 15006KT P6SM SCT050=

USA.gov is the U.S. government's official web portal to all federal, state and local government web resources and services.